sensor_id;sensor_type;location;lat;lon;timestamp;P1;durP1;ratioP1;P2;durP2;ratioP2
74833;SDS011;63361;52.384;20.930;2024-01-25T00:00:16;9.27;;;2.07;;
74833;SDS011;63361;52.384;20.930;2024-01-25T00:02:42;8.52;;;1.30;;
74833;SDS011;63361;52.384;20.930;2024-01-25T00:05:07;6.87;;;1.43;;
74833;SDS011;63361;52.384;20.930;2024-01-25T00:07:32;9.82;;;1.67;;
74833;SDS011;63361;52.384;20.930;2024-01-25T00:09:58;6.77;;;1.60;;
74833;SDS011;63361;52.384;20.930;2024-01-25T00:12:23;9.10;;;1.60;;
74833;SDS011;63361;52.384;20.930;2024-01-25T00:14:48;7.77;;;1.50;;
74833;SDS011;63361;52.384;20.930;2024-01-25T00:17:14;8.67;;;1.63;;
74833;SDS011;63361;52.384;20.930;2024-01-25T00:19:39;9.63;;;1.43;;
74833;SDS011;63361;52.384;20.930;2024-01-25T00:22:06;8.75;;;1.35;;
74833;SDS011;63361;52.384;20.930;2024-01-25T00:24:32;8.10;;;1.53;;
74833;SDS011;63361;52.384;20.930;2024-01-25T00:26:58;8.60;;;1.65;;
74833;SDS011;63361;52.384;20.930;2024-01-25T00:29:23;9.10;;;1.60;;
74833;SDS011;63361;52.384;20.930;2024-01-25T00:31:48;8.32;;;1.75;;
74833;SDS011;63361;52.384;20.930;2024-01-25T00:34:14;7.10;;;1.43;;
74833;SDS011;63361;52.384;20.930;2024-01-25T00:36:40;4.83;;;1.33;;
74833;SDS011;63361;52.384;20.930;2024-01-25T00:39:05;8.03;;;1.60;;
74833;SDS011;63361;52.384;20.930;2024-01-25T00:41:31;5.50;;;1.50;;
74833;SDS011;63361;52.384;20.930;2024-01-25T00:43:58;6.72;;;1.02;;
74833;SDS011;63361;52.384;20.930;2024-01-25T00:46:23;4.07;;;0.97;;
74833;SDS011;63361;52.384;20.930;2024-01-25T00:48:49;5.57;;;1.03;;
74833;SDS011;63361;52.384;20.930;2024-01-25T00:51:15;8.47;;;1.10;;
74833;SDS011;63361;52.384;20.930;2024-01-25T00:53:45;4.03;;;0.82;;
74833;SDS011;63361;52.384;20.930;2024-01-25T00:56:10;3.67;;;0.87;;
74833;SDS011;63361;52.384;20.930;2024-01-25T00:58:36;3.85;;;1.00;;
74833;SDS011;63361;52.384;20.930;2024-01-25T01:01:02;5.33;;;1.00;;
74833;SDS011;63361;52.384;20.930;2024-01-25T01:03:28;4.93;;;0.90;;
74833;SDS011;63361;52.384;20.930;2024-01-25T01:05:53;3.97;;;0.83;;
74833;SDS011;63361;52.384;20.930;2024-01-25T01:08:19;4.15;;;1.10;;
74833;SDS011;63361;52.384;20.930;2024-01-25T01:10:44;6.73;;;1.37;;
74833;SDS011;63361;52.384;20.930;2024-01-25T01:13:10;3.73;;;0.90;;
74833;SDS011;63361;52.384;20.930;2024-01-25T01:15:35;5.83;;;1.10;;
74833;SDS011;63361;52.384;20.930;2024-01-25T01:18:00;9.60;;;1.13;;
74833;SDS011;63361;52.384;20.930;2024-01-25T01:20:25;5.77;;;1.00;;
74833;SDS011;63361;52.384;20.930;2024-01-25T01:22:51;7.10;;;1.50;;
74833;SDS011;63361;52.384;20.930;2024-01-25T01:25:17;6.87;;;1.00;;
74833;SDS011;63361;52.384;20.930;2024-01-25T01:27:42;7.47;;;1.40;;
74833;SDS011;63361;52.384;20.930;2024-01-25T01:30:08;11.00;;;1.40;;
74833;SDS011;63361;52.384;20.930;2024-01-25T01:32:34;8.45;;;0.95;;
74833;SDS011;63361;52.384;20.930;2024-01-25T01:34:59;6.50;;;1.10;;
74833;SDS011;63361;52.384;20.930;2024-01-25T01:37:24;8.83;;;1.00;;
74833;SDS011;63361;52.384;20.930;2024-01-25T01:39:50;3.83;;;1.00;;
74833;SDS011;63361;52.384;20.930;2024-01-25T01:42:16;5.57;;;1.42;;
74833;SDS011;63361;52.384;20.930;2024-01-25T01:44:41;4.93;;;0.97;;
74833;SDS011;63361;52.384;20.930;2024-01-25T01:47:06;10.70;;;1.30;;
74833;SDS011;63361;52.384;20.930;2024-01-25T01:49:32;10.48;;;1.92;;
74833;SDS011;63361;52.384;20.930;2024-01-25T01:51:57;5.93;;;1.17;;
74833;SDS011;63361;52.384;20.930;2024-01-25T01:54:23;6.50;;;1.30;;
74833;SDS011;63361;52.384;20.930;2024-01-25T01:56:49;12.38;;;1.42;;
74833;SDS011;63361;52.384;20.930;2024-01-25T01:59:15;8.55;;;1.40;;
74833;SDS011;63361;52.384;20.930;2024-01-25T02:01:41;7.03;;;1.20;;
74833;SDS011;63361;52.384;20.930;2024-01-25T02:04:06;6.63;;;1.37;;
74833;SDS011;63361;52.384;20.930;2024-01-25T02:06:32;10.57;;;1.55;;
74833;SDS011;63361;52.384;20.930;2024-01-25T02:08:57;6.47;;;1.33;;
74833;SDS011;63361;52.384;20.930;2024-01-25T02:11:26;8.38;;;1.52;;
74833;SDS011;63361;52.384;20.930;2024-01-25T02:13:51;7.77;;;1.30;;
74833;SDS011;63361;52.384;20.930;2024-01-25T02:16:17;9.27;;;1.30;;
74833;SDS011;63361;52.384;20.930;2024-01-25T02:18:45;7.55;;;1.75;;
74833;SDS011;63361;52.384;20.930;2024-01-25T02:21:14;6.80;;;1.20;;
74833;SDS011;63361;52.384;20.930;2024-01-25T02:23:39;7.27;;;1.57;;
74833;SDS011;63361;52.384;20.930;2024-01-25T02:26:05;6.05;;;1.40;;
74833;SDS011;63361;52.384;20.930;2024-01-25T02:28:31;5.87;;;1.73;;
74833;SDS011;63361;52.384;20.930;2024-01-25T02:30:56;7.47;;;2.67;;
74833;SDS011;63361;52.384;20.930;2024-01-25T02:33:22;13.35;;;1.92;;
74833;SDS011;63361;52.384;20.930;2024-01-25T02:35:47;6.77;;;1.60;;
74833;SDS011;63361;52.384;20.930;2024-01-25T02:38:12;13.37;;;2.00;;
74833;SDS011;63361;52.384;20.930;2024-01-25T02:40:38;9.77;;;1.77;;
74833;SDS011;63361;52.384;20.930;2024-01-25T02:43:04;9.00;;;1.75;;
74833;SDS011;63361;52.384;20.930;2024-01-25T02:45:29;6.57;;;1.60;;
74833;SDS011;63361;52.384;20.930;2024-01-25T02:47:54;8.80;;;1.70;;
74833;SDS011;63361;52.384;20.930;2024-01-25T02:50:20;8.37;;;1.63;;
74833;SDS011;63361;52.384;20.930;2024-01-25T02:52:45;11.90;;;2.17;;
74833;SDS011;63361;52.384;20.930;2024-01-25T02:55:10;12.63;;;1.80;;
74833;SDS011;63361;52.384;20.930;2024-01-25T02:57:36;11.30;;;1.67;;
74833;SDS011;63361;52.384;20.930;2024-01-25T03:00:01;12.73;;;2.20;;
74833;SDS011;63361;52.384;20.930;2024-01-25T03:02:26;9.13;;;1.90;;
74833;SDS011;63361;52.384;20.930;2024-01-25T03:04:52;11.80;;;1.63;;
74833;SDS011;63361;52.384;20.930;2024-01-25T03:07:17;8.00;;;2.13;;
74833;SDS011;63361;52.384;20.930;2024-01-25T03:09:43;8.95;;;2.20;;
74833;SDS011;63361;52.384;20.930;2024-01-25T03:12:08;8.53;;;1.43;;
74833;SDS011;63361;52.384;20.930;2024-01-25T03:14:33;10.83;;;1.97;;
74833;SDS011;63361;52.384;20.930;2024-01-25T03:16:59;9.80;;;2.07;;
74833;SDS011;63361;52.384;20.930;2024-01-25T03:19:24;10.83;;;2.23;;
74833;SDS011;63361;52.384;20.930;2024-01-25T03:21:51;8.35;;;2.03;;
74833;SDS011;63361;52.384;20.930;2024-01-25T03:24:16;12.63;;;2.13;;
74833;SDS011;63361;52.384;20.930;2024-01-25T03:26:41;13.83;;;1.93;;
74833;SDS011;63361;52.384;20.930;2024-01-25T03:29:07;6.47;;;2.17;;
74833;SDS011;63361;52.384;20.930;2024-01-25T03:31:32;8.98;;;2.00;;
74833;SDS011;63361;52.384;20.930;2024-01-25T03:33:58;8.63;;;2.50;;
74833;SDS011;63361;52.384;20.930;2024-01-25T03:36:23;7.60;;;2.50;;
74833;SDS011;63361;52.384;20.930;2024-01-25T03:38:48;14.37;;;2.20;;
74833;SDS011;63361;52.384;20.930;2024-01-25T03:41:14;14.53;;;2.30;;
74833;SDS011;63361;52.384;20.930;2024-01-25T03:43:39;9.75;;;1.83;;
74833;SDS011;63361;52.384;20.930;2024-01-25T03:46:04;11.47;;;2.70;;
74833;SDS011;63361;52.384;20.930;2024-01-25T03:48:30;11.37;;;2.13;;
74833;SDS011;63361;52.384;20.930;2024-01-25T03:50:55;9.87;;;2.00;;
74833;SDS011;63361;52.384;20.930;2024-01-25T03:53:21;10.45;;;2.45;;
74833;SDS011;63361;52.384;20.930;2024-01-25T03:55:47;8.25;;;2.22;;
74833;SDS011;63361;52.384;20.930;2024-01-25T03:58:14;14.37;;;3.00;;
74833;SDS011;63361;52.384;20.930;2024-01-25T04:00:39;14.07;;;2.72;;
74833;SDS011;63361;52.384;20.930;2024-01-25T04:03:05;8.13;;;2.07;;
74833;SDS011;63361;52.384;20.930;2024-01-25T04:05:30;10.27;;;2.00;;
74833;SDS011;63361;52.384;20.930;2024-01-25T04:07:55;9.40;;;2.03;;
74833;SDS011;63361;52.384;20.930;2024-01-25T04:10:21;7.73;;;2.13;;
74833;SDS011;63361;52.384;20.930;2024-01-25T04:12:46;19.27;;;2.80;;
74833;SDS011;63361;52.384;20.930;2024-01-25T04:15:11;10.10;;;1.70;;
74833;SDS011;63361;52.384;20.930;2024-01-25T04:17:37;10.10;;;2.00;;
74833;SDS011;63361;52.384;20.930;2024-01-25T04:20:02;10.17;;;2.17;;
74833;SDS011;63361;52.384;20.930;2024-01-25T04:22:28;10.23;;;2.20;;
74833;SDS011;63361;52.384;20.930;2024-01-25T04:24:53;8.93;;;2.37;;
74833;SDS011;63361;52.384;20.930;2024-01-25T04:27:18;9.90;;;2.58;;
74833;SDS011;63361;52.384;20.930;2024-01-25T04:29:44;11.07;;;2.17;;
74833;SDS011;63361;52.384;20.930;2024-01-25T04:32:09;11.83;;;2.67;;
74833;SDS011;63361;52.384;20.930;2024-01-25T04:34:35;12.00;;;2.23;;
74833;SDS011;63361;52.384;20.930;2024-01-25T04:37:01;7.30;;;1.92;;
74833;SDS011;63361;52.384;20.930;2024-01-25T04:39:26;9.93;;;2.33;;
74833;SDS011;63361;52.384;20.930;2024-01-25T04:41:52;9.30;;;2.20;;
74833;SDS011;63361;52.384;20.930;2024-01-25T04:44:17;9.63;;;2.60;;
74833;SDS011;63361;52.384;20.930;2024-01-25T04:46:43;7.87;;;2.00;;
74833;SDS011;63361;52.384;20.930;2024-01-25T04:49:08;7.10;;;2.38;;
74833;SDS011;63361;52.384;20.930;2024-01-25T04:51:34;5.97;;;1.87;;
74833;SDS011;63361;52.384;20.930;2024-01-25T04:54:00;7.05;;;2.10;;
74833;SDS011;63361;52.384;20.930;2024-01-25T04:56:25;14.37;;;2.40;;
74833;SDS011;63361;52.384;20.930;2024-01-25T04:58:50;7.50;;;1.70;;
74833;SDS011;63361;52.384;20.930;2024-01-25T05:01:16;9.43;;;1.97;;
74833;SDS011;63361;52.384;20.930;2024-01-25T05:03:41;13.10;;;2.55;;
74833;SDS011;63361;52.384;20.930;2024-01-25T05:06:07;9.07;;;2.07;;
74833;SDS011;63361;52.384;20.930;2024-01-25T05:08:32;8.07;;;2.60;;
74833;SDS011;63361;52.384;20.930;2024-01-25T05:10:58;7.23;;;2.03;;
74833;SDS011;63361;52.384;20.930;2024-01-25T05:13:23;12.57;;;2.90;;
74833;SDS011;63361;52.384;20.930;2024-01-25T05:15:48;10.40;;;2.27;;
74833;SDS011;63361;52.384;20.930;2024-01-25T05:18:14;14.37;;;2.23;;
74833;SDS011;63361;52.384;20.930;2024-01-25T05:20:39;14.27;;;2.20;;
74833;SDS011;63361;52.384;20.930;2024-01-25T05:23:05;15.33;;;2.30;;
74833;SDS011;63361;52.384;20.930;2024-01-25T05:25:30;11.77;;;2.10;;
74833;SDS011;63361;52.384;20.930;2024-01-25T05:27:56;6.33;;;2.00;;
74833;SDS011;63361;52.384;20.930;2024-01-25T05:30:22;12.38;;;2.53;;
74833;SDS011;63361;52.384;20.930;2024-01-25T05:32:48;5.18;;;1.58;;
74833;SDS011;63361;52.384;20.930;2024-01-25T05:35:14;7.70;;;2.13;;
74833;SDS011;63361;52.384;20.930;2024-01-25T05:37:40;4.70;;;1.52;;
74833;SDS011;63361;52.384;20.930;2024-01-25T05:40:06;6.53;;;1.60;;
74833;SDS011;63361;52.384;20.930;2024-01-25T05:42:32;5.37;;;1.80;;
74833;SDS011;63361;52.384;20.930;2024-01-25T05:44:57;5.17;;;1.60;;
74833;SDS011;63361;52.384;20.930;2024-01-25T05:47:23;7.07;;;2.10;;
74833;SDS011;63361;52.384;20.930;2024-01-25T05:49:48;6.57;;;2.13;;
74833;SDS011;63361;52.384;20.930;2024-01-25T05:52:13;6.13;;;1.77;;
74833;SDS011;63361;52.384;20.930;2024-01-25T05:54:39;7.07;;;2.20;;
74833;SDS011;63361;52.384;20.930;2024-01-25T05:57:04;7.47;;;2.23;;
74833;SDS011;63361;52.384;20.930;2024-01-25T05:59:30;7.13;;;1.73;;
74833;SDS011;63361;52.384;20.930;2024-01-25T06:01:55;9.80;;;1.97;;
74833;SDS011;63361;52.384;20.930;2024-01-25T06:04:20;6.43;;;2.10;;
74833;SDS011;63361;52.384;20.930;2024-01-25T06:06:46;7.03;;;1.53;;
74833;SDS011;63361;52.384;20.930;2024-01-25T06:09:11;14.63;;;2.90;;
74833;SDS011;63361;52.384;20.930;2024-01-25T06:11:37;8.93;;;2.30;;
74833;SDS011;63361;52.384;20.930;2024-01-25T06:14:03;11.90;;;2.43;;
74833;SDS011;63361;52.384;20.930;2024-01-25T06:16:30;10.50;;;2.13;;
74833;SDS011;63361;52.384;20.930;2024-01-25T06:18:55;14.20;;;2.10;;
74833;SDS011;63361;52.384;20.930;2024-01-25T06:21:20;7.03;;;2.00;;
74833;SDS011;63361;52.384;20.930;2024-01-25T06:23:46;10.87;;;2.67;;
74833;SDS011;63361;52.384;20.930;2024-01-25T06:26:11;18.20;;;2.90;;
74833;SDS011;63361;52.384;20.930;2024-01-25T06:28:36;6.47;;;1.80;;
74833;SDS011;63361;52.384;20.930;2024-01-25T06:31:01;10.13;;;1.87;;
74833;SDS011;63361;52.384;20.930;2024-01-25T06:33:27;11.20;;;5.37;;
74833;SDS011;63361;52.384;20.930;2024-01-25T06:35:53;16.77;;;11.27;;
74833;SDS011;63361;52.384;20.930;2024-01-25T06:38:19;8.35;;;2.92;;
74833;SDS011;63361;52.384;20.930;2024-01-25T06:40:45;13.20;;;2.83;;
74833;SDS011;63361;52.384;20.930;2024-01-25T06:43:10;10.40;;;2.00;;
74833;SDS011;63361;52.384;20.930;2024-01-25T06:45:36;7.88;;;2.53;;
74833;SDS011;63361;52.384;20.930;2024-01-25T06:48:02;6.97;;;2.17;;
74833;SDS011;63361;52.384;20.930;2024-01-25T06:50:27;8.20;;;1.65;;
74833;SDS011;63361;52.384;20.930;2024-01-25T06:52:53;9.83;;;2.60;;
74833;SDS011;63361;52.384;20.930;2024-01-25T06:55:19;11.27;;;2.28;;
74833;SDS011;63361;52.384;20.930;2024-01-25T06:57:45;9.47;;;2.00;;
74833;SDS011;63361;52.384;20.930;2024-01-25T07:00:10;10.33;;;2.23;;
74833;SDS011;63361;52.384;20.930;2024-01-25T07:02:38;9.10;;;2.28;;
74833;SDS011;63361;52.384;20.930;2024-01-25T07:05:03;8.23;;;2.20;;
74833;SDS011;63361;52.384;20.930;2024-01-25T07:07:29;8.32;;;2.45;;
74833;SDS011;63361;52.384;20.930;2024-01-25T07:09:57;7.15;;;2.25;;
74833;SDS011;63361;52.384;20.930;2024-01-25T07:12:22;11.23;;;3.03;;
74833;SDS011;63361;52.384;20.930;2024-01-25T07:14:48;9.63;;;3.10;;
74833;SDS011;63361;52.384;20.930;2024-01-25T07:17:13;9.73;;;3.23;;
74833;SDS011;63361;52.384;20.930;2024-01-25T07:19:38;13.07;;;2.63;;
74833;SDS011;63361;52.384;20.930;2024-01-25T07:22:04;10.00;;;2.30;;
74833;SDS011;63361;52.384;20.930;2024-01-25T07:24:29;14.30;;;3.50;;
74833;SDS011;63361;52.384;20.930;2024-01-25T07:26:54;10.60;;;3.97;;
74833;SDS011;63361;52.384;20.930;2024-01-25T07:29:20;10.43;;;3.30;;
74833;SDS011;63361;52.384;20.930;2024-01-25T07:31:45;7.95;;;2.15;;
74833;SDS011;63361;52.384;20.930;2024-01-25T07:34:11;10.00;;;2.23;;
74833;SDS011;63361;52.384;20.930;2024-01-25T07:36:36;10.03;;;2.87;;
74833;SDS011;63361;52.384;20.930;2024-01-25T07:39:01;12.80;;;3.57;;
74833;SDS011;63361;52.384;20.930;2024-01-25T07:41:28;10.93;;;4.75;;
74833;SDS011;63361;52.384;20.930;2024-01-25T07:43:53;12.87;;;5.50;;
74833;SDS011;63361;52.384;20.930;2024-01-25T07:46:20;6.50;;;2.10;;
74833;SDS011;63361;52.384;20.930;2024-01-25T07:48:46;8.23;;;2.37;;
74833;SDS011;63361;52.384;20.930;2024-01-25T07:51:12;6.75;;;2.05;;
74833;SDS011;63361;52.384;20.930;2024-01-25T07:53:38;6.90;;;2.33;;
74833;SDS011;63361;52.384;20.930;2024-01-25T07:56:06;7.17;;;1.77;;
74833;SDS011;63361;52.384;20.930;2024-01-25T07:58:32;8.45;;;2.00;;
74833;SDS011;63361;52.384;20.930;2024-01-25T08:00:58;6.67;;;2.27;;
74833;SDS011;63361;52.384;20.930;2024-01-25T08:03:23;10.93;;;4.27;;
74833;SDS011;63361;52.384;20.930;2024-01-25T08:05:48;13.70;;;5.87;;
74833;SDS011;63361;52.384;20.930;2024-01-25T08:08:14;27.47;;;15.17;;
74833;SDS011;63361;52.384;20.930;2024-01-25T08:10:39;12.20;;;3.53;;
74833;SDS011;63361;52.384;20.930;2024-01-25T08:13:04;5.63;;;1.90;;
74833;SDS011;63361;52.384;20.930;2024-01-25T08:15:30;6.20;;;2.37;;
74833;SDS011;63361;52.384;20.930;2024-01-25T08:17:55;6.17;;;2.27;;
74833;SDS011;63361;52.384;20.930;2024-01-25T08:20:20;6.37;;;2.17;;
74833;SDS011;63361;52.384;20.930;2024-01-25T08:22:46;3.83;;;1.67;;
74833;SDS011;63361;52.384;20.930;2024-01-25T08:25:11;5.50;;;2.10;;
74833;SDS011;63361;52.384;20.930;2024-01-25T08:27:38;7.38;;;2.15;;
74833;SDS011;63361;52.384;20.930;2024-01-25T08:30:04;4.10;;;1.80;;
74833;SDS011;63361;52.384;20.930;2024-01-25T08:32:30;9.23;;;2.63;;
74833;SDS011;63361;52.384;20.930;2024-01-25T08:34:56;8.60;;;3.27;;
74833;SDS011;63361;52.384;20.930;2024-01-25T08:37:21;9.07;;;2.73;;
74833;SDS011;63361;52.384;20.930;2024-01-25T08:39:46;6.00;;;2.58;;
74833;SDS011;63361;52.384;20.930;2024-01-25T08:42:17;5.10;;;1.83;;
74833;SDS011;63361;52.384;20.930;2024-01-25T08:44:46;5.22;;;2.00;;
74833;SDS011;63361;52.384;20.930;2024-01-25T08:47:15;4.90;;;1.80;;
74833;SDS011;63361;52.384;20.930;2024-01-25T08:49:42;6.22;;;2.10;;
74833;SDS011;63361;52.384;20.930;2024-01-25T08:52:07;7.20;;;3.33;;
74833;SDS011;63361;52.384;20.930;2024-01-25T08:54:33;4.23;;;2.03;;
74833;SDS011;63361;52.384;20.930;2024-01-25T08:56:59;9.35;;;3.88;;
74833;SDS011;63361;52.384;20.930;2024-01-25T08:59:24;6.45;;;2.50;;
74833;SDS011;63361;52.384;20.930;2024-01-25T09:01:51;4.03;;;1.77;;
74833;SDS011;63361;52.384;20.930;2024-01-25T09:04:17;4.27;;;1.50;;
74833;SDS011;63361;52.384;20.930;2024-01-25T09:06:43;5.53;;;1.83;;
74833;SDS011;63361;52.384;20.930;2024-01-25T09:09:08;5.38;;;1.50;;
74833;SDS011;63361;52.384;20.930;2024-01-25T09:11:35;4.50;;;1.40;;
74833;SDS011;63361;52.384;20.930;2024-01-25T09:14:01;5.30;;;1.48;;
74833;SDS011;63361;52.384;20.930;2024-01-25T09:16:26;4.63;;;1.60;;
74833;SDS011;63361;52.384;20.930;2024-01-25T09:18:52;4.33;;;1.60;;
74833;SDS011;63361;52.384;20.930;2024-01-25T09:21:17;5.53;;;2.30;;
74833;SDS011;63361;52.384;20.930;2024-01-25T09:23:42;6.50;;;1.90;;
74833;SDS011;63361;52.384;20.930;2024-01-25T09:26:07;4.23;;;1.60;;
74833;SDS011;63361;52.384;20.930;2024-01-25T09:28:33;5.35;;;2.30;;
74833;SDS011;63361;52.384;20.930;2024-01-25T09:30:59;8.03;;;3.17;;
74833;SDS011;63361;52.384;20.930;2024-01-25T09:33:24;4.57;;;2.10;;
74833;SDS011;63361;52.384;20.930;2024-01-25T09:35:49;5.50;;;3.33;;
74833;SDS011;63361;52.384;20.930;2024-01-25T09:38:15;7.82;;;2.50;;
74833;SDS011;63361;52.384;20.930;2024-01-25T09:40:40;5.57;;;2.20;;
74833;SDS011;63361;52.384;20.930;2024-01-25T09:43:05;5.27;;;1.60;;
74833;SDS011;63361;52.384;20.930;2024-01-25T09:45:31;4.80;;;1.53;;
74833;SDS011;63361;52.384;20.930;2024-01-25T09:47:57;7.25;;;1.23;;
74833;SDS011;63361;52.384;20.930;2024-01-25T09:50:22;3.70;;;1.50;;
74833;SDS011;63361;52.384;20.930;2024-01-25T09:52:50;3.67;;;1.45;;
74833;SDS011;63361;52.384;20.930;2024-01-25T09:55:20;4.33;;;1.33;;
74833;SDS011;63361;52.384;20.930;2024-01-25T09:57:49;4.22;;;1.30;;
74833;SDS011;63361;52.384;20.930;2024-01-25T10:00:22;3.85;;;1.40;;
74833;SDS011;63361;52.384;20.930;2024-01-25T10:02:48;6.13;;;1.35;;
74833;SDS011;63361;52.384;20.930;2024-01-25T10:05:17;2.67;;;1.15;;
74833;SDS011;63361;52.384;20.930;2024-01-25T10:07:43;4.80;;;1.30;;
74833;SDS011;63361;52.384;20.930;2024-01-25T10:10:12;4.80;;;1.10;;
74833;SDS011;63361;52.384;20.930;2024-01-25T10:12:41;3.88;;;1.45;;
74833;SDS011;63361;52.384;20.930;2024-01-25T10:15:08;3.85;;;1.20;;
74833;SDS011;63361;52.384;20.930;2024-01-25T10:17:33;5.10;;;1.10;;
74833;SDS011;63361;52.384;20.930;2024-01-25T10:19:59;5.57;;;1.42;;
74833;SDS011;63361;52.384;20.930;2024-01-25T10:22:24;3.83;;;1.40;;
74833;SDS011;63361;52.384;20.930;2024-01-25T10:24:50;4.23;;;1.20;;
74833;SDS011;63361;52.384;20.930;2024-01-25T10:27:16;6.97;;;1.35;;
74833;SDS011;63361;52.384;20.930;2024-01-25T10:29:42;4.63;;;1.40;;
74833;SDS011;63361;52.384;20.930;2024-01-25T10:32:10;5.20;;;1.30;;
74833;SDS011;63361;52.384;20.930;2024-01-25T10:34:37;4.57;;;1.53;;
74833;SDS011;63361;52.384;20.930;2024-01-25T10:37:06;3.72;;;1.25;;
74833;SDS011;63361;52.384;20.930;2024-01-25T10:39:32;3.53;;;1.02;;
74833;SDS011;63361;52.384;20.930;2024-01-25T10:41:58;4.00;;;1.40;;
74833;SDS011;63361;52.384;20.930;2024-01-25T10:44:24;4.90;;;1.33;;
74833;SDS011;63361;52.384;20.930;2024-01-25T10:46:50;6.18;;;1.10;;
74833;SDS011;63361;52.384;20.930;2024-01-25T10:49:16;4.10;;;1.30;;
74833;SDS011;63361;52.384;20.930;2024-01-25T10:51:43;4.30;;;1.20;;
74833;SDS011;63361;52.384;20.930;2024-01-25T10:54:10;6.60;;;2.00;;
74833;SDS011;63361;52.384;20.930;2024-01-25T10:56:37;10.07;;;2.72;;
74833;SDS011;63361;52.384;20.930;2024-01-25T10:59:03;3.65;;;1.33;;
74833;SDS011;63361;52.384;20.930;2024-01-25T11:01:30;5.00;;;1.60;;
74833;SDS011;63361;52.384;20.930;2024-01-25T11:03:55;3.25;;;1.05;;
74833;SDS011;63361;52.384;20.930;2024-01-25T11:06:21;5.03;;;1.20;;
74833;SDS011;63361;52.384;20.930;2024-01-25T11:08:47;3.97;;;1.48;;
74833;SDS011;63361;52.384;20.930;2024-01-25T11:11:14;5.47;;;1.50;;
74833;SDS011;63361;52.384;20.930;2024-01-25T11:13:40;3.10;;;1.00;;
74833;SDS011;63361;52.384;20.930;2024-01-25T11:16:49;2.78;;;0.77;;
74833;SDS011;63361;52.384;20.930;2024-01-25T11:18:57;2.20;;;1.05;;
74833;SDS011;63361;52.384;20.930;2024-01-25T11:21:39;6.93;;;1.20;;
74833;SDS011;63361;52.384;20.930;2024-01-25T11:24:11;4.07;;;1.20;;
74833;SDS011;63361;52.384;20.930;2024-01-25T11:26:37;3.92;;;1.20;;
74833;SDS011;63361;52.384;20.930;2024-01-25T11:29:03;3.40;;;1.20;;
74833;SDS011;63361;52.384;20.930;2024-01-25T11:31:28;3.80;;;1.40;;
74833;SDS011;63361;52.384;20.930;2024-01-25T11:34:00;2.95;;;1.00;;
74833;SDS011;63361;52.384;20.930;2024-01-25T11:36:25;3.77;;;1.00;;
74833;SDS011;63361;52.384;20.930;2024-01-25T11:38:51;3.88;;;1.17;;
74833;SDS011;63361;52.384;20.930;2024-01-25T11:41:17;4.60;;;1.30;;
74833;SDS011;63361;52.384;20.930;2024-01-25T11:43:42;3.83;;;1.20;;
74833;SDS011;63361;52.384;20.930;2024-01-25T11:46:08;4.07;;;1.25;;
74833;SDS011;63361;52.384;20.930;2024-01-25T11:48:33;3.30;;;1.13;;
74833;SDS011;63361;52.384;20.930;2024-01-25T11:50:59;4.85;;;1.25;;
74833;SDS011;63361;52.384;20.930;2024-01-25T11:53:25;3.90;;;1.23;;
74833;SDS011;63361;52.384;20.930;2024-01-25T11:55:50;5.20;;;1.30;;
74833;SDS011;63361;52.384;20.930;2024-01-25T11:58:16;4.77;;;1.40;;
74833;SDS011;63361;52.384;20.930;2024-01-25T12:00:42;5.72;;;1.92;;
74833;SDS011;63361;52.384;20.930;2024-01-25T12:03:08;5.17;;;1.87;;
74833;SDS011;63361;52.384;20.930;2024-01-25T12:05:34;3.05;;;1.38;;
74833;SDS011;63361;52.384;20.930;2024-01-25T12:07:59;3.13;;;0.90;;
74833;SDS011;63361;52.384;20.930;2024-01-25T12:10:25;2.03;;;0.57;;
74833;SDS011;63361;52.384;20.930;2024-01-25T12:12:51;2.00;;;1.10;;
74833;SDS011;63361;52.384;20.930;2024-01-25T12:15:16;2.42;;;0.80;;
74833;SDS011;63361;52.384;20.930;2024-01-25T12:17:42;2.77;;;0.80;;
74833;SDS011;63361;52.384;20.930;2024-01-25T12:20:07;3.37;;;1.23;;
74833;SDS011;63361;52.384;20.930;2024-01-25T12:22:38;2.57;;;1.07;;
74833;SDS011;63361;52.384;20.930;2024-01-25T12:25:06;2.20;;;0.80;;
74833;SDS011;63361;52.384;20.930;2024-01-25T12:27:34;3.40;;;1.40;;
74833;SDS011;63361;52.384;20.930;2024-01-25T12:29:59;4.33;;;1.23;;
74833;SDS011;63361;52.384;20.930;2024-01-25T12:32:25;2.80;;;1.20;;
74833;SDS011;63361;52.384;20.930;2024-01-25T12:34:54;3.37;;;1.20;;
74833;SDS011;63361;52.384;20.930;2024-01-25T12:37:23;3.22;;;1.23;;
74833;SDS011;63361;52.384;20.930;2024-01-25T12:39:50;3.73;;;1.83;;
74833;SDS011;63361;52.384;20.930;2024-01-25T12:42:16;5.37;;;1.80;;
74833;SDS011;63361;52.384;20.930;2024-01-25T12:44:42;5.13;;;1.90;;
74833;SDS011;63361;52.384;20.930;2024-01-25T12:47:08;4.10;;;1.60;;
74833;SDS011;63361;52.384;20.930;2024-01-25T12:49:34;4.25;;;1.35;;
74833;SDS011;63361;52.384;20.930;2024-01-25T12:52:00;4.90;;;1.30;;
74833;SDS011;63361;52.384;20.930;2024-01-25T12:54:25;3.35;;;1.00;;
74833;SDS011;63361;52.384;20.930;2024-01-25T12:56:54;3.23;;;1.20;;
74833;SDS011;63361;52.384;20.930;2024-01-25T12:59:19;4.45;;;1.52;;
74833;SDS011;63361;52.384;20.930;2024-01-25T13:01:45;2.30;;;0.80;;
74833;SDS011;63361;52.384;20.930;2024-01-25T13:04:10;5.63;;;1.27;;
74833;SDS011;63361;52.384;20.930;2024-01-25T13:06:36;5.90;;;1.77;;
74833;SDS011;63361;52.384;20.930;2024-01-25T13:09:01;2.33;;;0.85;;
74833;SDS011;63361;52.384;20.930;2024-01-25T13:11:28;2.85;;;1.45;;
74833;SDS011;63361;52.384;20.930;2024-01-25T13:13:54;4.00;;;1.47;;
74833;SDS011;63361;52.384;20.930;2024-01-25T13:16:19;2.67;;;1.23;;
74833;SDS011;63361;52.384;20.930;2024-01-25T13:18:44;3.07;;;1.17;;
74833;SDS011;63361;52.384;20.930;2024-01-25T13:21:10;3.93;;;1.33;;
74833;SDS011;63361;52.384;20.930;2024-01-25T13:23:37;4.40;;;1.13;;
74833;SDS011;63361;52.384;20.930;2024-01-25T13:26:03;4.20;;;1.47;;
74833;SDS011;63361;52.384;20.930;2024-01-25T13:28:28;2.50;;;0.87;;
74833;SDS011;63361;52.384;20.930;2024-01-25T13:30:54;4.25;;;1.02;;
74833;SDS011;63361;52.384;20.930;2024-01-25T13:33:21;3.00;;;1.25;;
74833;SDS011;63361;52.384;20.930;2024-01-25T13:35:46;3.00;;;1.23;;
74833;SDS011;63361;52.384;20.930;2024-01-25T13:38:12;4.37;;;1.40;;
74833;SDS011;63361;52.384;20.930;2024-01-25T13:40:39;4.25;;;1.30;;
74833;SDS011;63361;52.384;20.930;2024-01-25T13:43:05;3.00;;;1.10;;
74833;SDS011;63361;52.384;20.930;2024-01-25T13:45:30;3.13;;;1.20;;
74833;SDS011;63361;52.384;20.930;2024-01-25T13:47:56;2.63;;;0.83;;
74833;SDS011;63361;52.384;20.930;2024-01-25T13:50:21;2.63;;;0.80;;
74833;SDS011;63361;52.384;20.930;2024-01-25T13:52:46;3.33;;;1.00;;
74833;SDS011;63361;52.384;20.930;2024-01-25T13:55:12;2.80;;;1.07;;
74833;SDS011;63361;52.384;20.930;2024-01-25T13:57:37;3.70;;;1.10;;
74833;SDS011;63361;52.384;20.930;2024-01-25T14:00:02;5.10;;;1.20;;
74833;SDS011;63361;52.384;20.930;2024-01-25T14:02:29;2.60;;;0.87;;
74833;SDS011;63361;52.384;20.930;2024-01-25T14:04:54;2.50;;;0.90;;
74833;SDS011;63361;52.384;20.930;2024-01-25T14:07:20;2.20;;;1.00;;
74833;SDS011;63361;52.384;20.930;2024-01-25T14:09:46;5.80;;;1.80;;
74833;SDS011;63361;52.384;20.930;2024-01-25T14:12:11;2.80;;;1.20;;
74833;SDS011;63361;52.384;20.930;2024-01-25T14:14:37;2.50;;;1.00;;
74833;SDS011;63361;52.384;20.930;2024-01-25T14:17:02;4.10;;;1.70;;
74833;SDS011;63361;52.384;20.930;2024-01-25T14:19:28;2.97;;;1.00;;
74833;SDS011;63361;52.384;20.930;2024-01-25T14:21:53;3.63;;;1.50;;